sensor_id;sensor_type;location;lat;lon;timestamp;P1;durP1;ratioP1;P2;durP2;ratioP2
70150;SDS011;57517;43.562;19.540;2022-07-23T00:01:22;8.52;;;6.45;;
70150;SDS011;57517;43.562;19.540;2022-07-23T00:03:48;11.23;;;7.60;;
70150;SDS011;57517;43.562;19.540;2022-07-23T00:06:15;9.77;;;6.90;;
70150;SDS011;57517;43.562;19.540;2022-07-23T00:08:41;9.52;;;7.30;;
70150;SDS011;57517;43.562;19.540;2022-07-23T00:11:07;9.23;;;6.95;;
70150;SDS011;57517;43.562;19.540;2022-07-23T00:13:33;8.90;;;7.07;;
70150;SDS011;57517;43.562;19.540;2022-07-23T00:15:59;9.73;;;7.18;;
70150;SDS011;57517;43.562;19.540;2022-07-23T00:18:25;9.88;;;7.45;;
70150;SDS011;57517;43.562;19.540;2022-07-23T00:20:50;9.35;;;7.38;;
70150;SDS011;57517;43.562;19.540;2022-07-23T00:23:16;10.93;;;7.72;;
70150;SDS011;57517;43.562;19.540;2022-07-23T00:25:42;10.05;;;7.30;;
70150;SDS011;57517;43.562;19.540;2022-07-23T00:28:10;9.75;;;7.45;;
70150;SDS011;57517;43.562;19.540;2022-07-23T00:30:36;7.93;;;6.72;;
70150;SDS011;57517;43.562;19.540;2022-07-23T00:33:03;9.07;;;7.43;;
70150;SDS011;57517;43.562;19.540;2022-07-23T00:35:32;9.52;;;7.55;;
70150;SDS011;57517;43.562;19.540;2022-07-23T00:38:03;8.80;;;7.32;;
70150;SDS011;57517;43.562;19.540;2022-07-23T00:40:30;8.85;;;6.85;;
70150;SDS011;57517;43.562;19.540;2022-07-23T00:42:56;9.50;;;7.15;;
70150;SDS011;57517;43.562;19.540;2022-07-23T00:45:22;7.90;;;6.53;;
70150;SDS011;57517;43.562;19.540;2022-07-23T00:47:48;8.27;;;6.90;;
70150;SDS011;57517;43.562;19.540;2022-07-23T00:50:14;11.35;;;6.88;;
70150;SDS011;57517;43.562;19.540;2022-07-23T00:52:40;9.13;;;7.40;;
70150;SDS011;57517;43.562;19.540;2022-07-23T00:55:07;8.05;;;7.18;;
70150;SDS011;57517;43.562;19.540;2022-07-23T00:57:34;9.07;;;7.43;;
70150;SDS011;57517;43.562;19.540;2022-07-23T01:00:01;9.40;;;7.55;;
70150;SDS011;57517;43.562;19.540;2022-07-23T01:02:28;11.48;;;7.43;;
70150;SDS011;57517;43.562;19.540;2022-07-23T01:04:54;8.70;;;7.40;;
70150;SDS011;57517;43.562;19.540;2022-07-23T01:07:20;9.05;;;7.28;;
70150;SDS011;57517;43.562;19.540;2022-07-23T01:09:47;10.57;;;7.22;;
70150;SDS011;57517;43.562;19.540;2022-07-23T01:12:13;8.13;;;7.20;;
70150;SDS011;57517;43.562;19.540;2022-07-23T01:14:39;10.27;;;7.78;;
70150;SDS011;57517;43.562;19.540;2022-07-23T01:17:05;14.60;;;7.93;;
70150;SDS011;57517;43.562;19.540;2022-07-23T01:19:31;8.52;;;7.00;;
70150;SDS011;57517;43.562;19.540;2022-07-23T01:21:57;9.65;;;6.85;;
70150;SDS011;57517;43.562;19.540;2022-07-23T01:24:26;8.73;;;7.35;;
70150;SDS011;57517;43.562;19.540;2022-07-23T01:26:52;10.00;;;7.95;;
70150;SDS011;57517;43.562;19.540;2022-07-23T01:29:18;11.63;;;7.95;;
70150;SDS011;57517;43.562;19.540;2022-07-23T01:31:46;8.55;;;7.53;;
70150;SDS011;57517;43.562;19.540;2022-07-23T01:34:12;8.43;;;7.20;;
70150;SDS011;57517;43.562;19.540;2022-07-23T01:36:38;9.20;;;7.43;;
70150;SDS011;57517;43.562;19.540;2022-07-23T01:39:04;9.48;;;7.30;;
70150;SDS011;57517;43.562;19.540;2022-07-23T01:41:31;10.18;;;7.22;;
70150;SDS011;57517;43.562;19.540;2022-07-23T01:43:57;9.70;;;7.80;;
70150;SDS011;57517;43.562;19.540;2022-07-23T01:46:23;9.57;;;7.32;;
70150;SDS011;57517;43.562;19.540;2022-07-23T01:48:49;8.55;;;7.47;;
70150;SDS011;57517;43.562;19.540;2022-07-23T01:51:15;10.40;;;7.65;;
70150;SDS011;57517;43.562;19.540;2022-07-23T01:53:41;11.43;;;7.90;;
70150;SDS011;57517;43.562;19.540;2022-07-23T01:56:07;9.52;;;7.57;;
70150;SDS011;57517;43.562;19.540;2022-07-23T01:58:33;9.40;;;7.32;;
70150;SDS011;57517;43.562;19.540;2022-07-23T02:00:59;11.55;;;8.07;;
70150;SDS011;57517;43.562;19.540;2022-07-23T02:03:25;10.55;;;7.40;;
70150;SDS011;57517;43.562;19.540;2022-07-23T02:05:51;10.50;;;7.50;;
70150;SDS011;57517;43.562;19.540;2022-07-23T02:08:17;9.68;;;7.43;;
70150;SDS011;57517;43.562;19.540;2022-07-23T02:10:43;11.73;;;8.10;;
70150;SDS011;57517;43.562;19.540;2022-07-23T02:13:09;9.05;;;7.78;;
70150;SDS011;57517;43.562;19.540;2022-07-23T02:15:35;8.55;;;7.45;;
70150;SDS011;57517;43.562;19.540;2022-07-23T02:18:01;9.50;;;7.53;;
70150;SDS011;57517;43.562;19.540;2022-07-23T02:20:27;10.10;;;7.63;;
70150;SDS011;57517;43.562;19.540;2022-07-23T02:22:53;10.32;;;7.90;;
70150;SDS011;57517;43.562;19.540;2022-07-23T02:25:19;8.85;;;7.07;;
70150;SDS011;57517;43.562;19.540;2022-07-23T02:27:44;10.02;;;7.50;;
70150;SDS011;57517;43.562;19.540;2022-07-23T02:30:10;9.68;;;7.75;;
70150;SDS011;57517;43.562;19.540;2022-07-23T02:32:37;10.57;;;8.13;;
70150;SDS011;57517;43.562;19.540;2022-07-23T02:35:04;11.05;;;7.78;;
70150;SDS011;57517;43.562;19.540;2022-07-23T02:37:31;10.25;;;7.63;;
70150;SDS011;57517;43.562;19.540;2022-07-23T02:39:57;9.00;;;7.57;;
70150;SDS011;57517;43.562;19.540;2022-07-23T02:42:23;10.05;;;7.80;;
70150;SDS011;57517;43.562;19.540;2022-07-23T02:44:49;10.07;;;8.13;;
70150;SDS011;57517;43.562;19.540;2022-07-23T02:47:16;9.52;;;7.95;;
70150;SDS011;57517;43.562;19.540;2022-07-23T02:49:41;8.80;;;7.32;;
70150;SDS011;57517;43.562;19.540;2022-07-23T02:52:07;10.15;;;8.10;;
70150;SDS011;57517;43.562;19.540;2022-07-23T02:54:35;11.00;;;8.25;;
70150;SDS011;57517;43.562;19.540;2022-07-23T02:57:02;10.65;;;8.55;;
70150;SDS011;57517;43.562;19.540;2022-07-23T02:59:28;8.95;;;8.05;;
70150;SDS011;57517;43.562;19.540;2022-07-23T03:01:54;9.02;;;8.13;;
70150;SDS011;57517;43.562;19.540;2022-07-23T03:04:19;9.32;;;8.32;;
70150;SDS011;57517;43.562;19.540;2022-07-23T03:06:45;9.88;;;8.20;;
70150;SDS011;57517;43.562;19.540;2022-07-23T03:09:11;11.02;;;8.00;;
70150;SDS011;57517;43.562;19.540;2022-07-23T03:11:37;11.85;;;9.15;;
70150;SDS011;57517;43.562;19.540;2022-07-23T03:14:03;10.95;;;8.15;;
70150;SDS011;57517;43.562;19.540;2022-07-23T03:16:29;11.68;;;8.68;;
70150;SDS011;57517;43.562;19.540;2022-07-23T03:18:54;9.88;;;8.18;;
70150;SDS011;57517;43.562;19.540;2022-07-23T03:21:20;9.70;;;8.52;;
70150;SDS011;57517;43.562;19.540;2022-07-23T03:23:46;8.90;;;7.85;;
70150;SDS011;57517;43.562;19.540;2022-07-23T03:26:12;9.00;;;8.10;;
70150;SDS011;57517;43.562;19.540;2022-07-23T03:28:37;12.20;;;8.77;;
70150;SDS011;57517;43.562;19.540;2022-07-23T03:31:03;9.20;;;8.30;;
70150;SDS011;57517;43.562;19.540;2022-07-23T03:33:29;12.23;;;8.63;;
70150;SDS011;57517;43.562;19.540;2022-07-23T03:35:55;9.35;;;8.43;;
70150;SDS011;57517;43.562;19.540;2022-07-23T03:38:20;12.10;;;9.15;;
70150;SDS011;57517;43.562;19.540;2022-07-23T03:40:46;10.43;;;8.82;;
70150;SDS011;57517;43.562;19.540;2022-07-23T03:43:12;9.63;;;8.23;;
70150;SDS011;57517;43.562;19.540;2022-07-23T03:45:38;9.18;;;8.27;;
70150;SDS011;57517;43.562;19.540;2022-07-23T03:48:04;10.60;;;8.48;;
70150;SDS011;57517;43.562;19.540;2022-07-23T03:50:29;10.90;;;9.40;;
70150;SDS011;57517;43.562;19.540;2022-07-23T03:52:55;11.07;;;8.88;;
70150;SDS011;57517;43.562;19.540;2022-07-23T03:55:21;10.57;;;8.63;;
70150;SDS011;57517;43.562;19.540;2022-07-23T03:57:47;12.65;;;8.65;;
70150;SDS011;57517;43.562;19.540;2022-07-23T04:00:13;10.45;;;8.60;;
70150;SDS011;57517;43.562;19.540;2022-07-23T04:02:39;12.30;;;8.48;;
70150;SDS011;57517;43.562;19.540;2022-07-23T04:05:05;11.50;;;10.07;;
70150;SDS011;57517;43.562;19.540;2022-07-23T04:07:32;11.20;;;8.45;;
70150;SDS011;57517;43.562;19.540;2022-07-23T04:09:58;10.98;;;8.60;;
70150;SDS011;57517;43.562;19.540;2022-07-23T04:12:24;9.10;;;8.20;;
70150;SDS011;57517;43.562;19.540;2022-07-23T04:14:50;10.80;;;8.65;;
70150;SDS011;57517;43.562;19.540;2022-07-23T04:17:15;13.60;;;9.40;;
70150;SDS011;57517;43.562;19.540;2022-07-23T04:19:41;10.57;;;8.52;;
70150;SDS011;57517;43.562;19.540;2022-07-23T04:22:09;11.73;;;8.93;;
70150;SDS011;57517;43.562;19.540;2022-07-23T04:24:38;10.63;;;8.98;;
70150;SDS011;57517;43.562;19.540;2022-07-23T04:27:04;10.60;;;8.57;;
70150;SDS011;57517;43.562;19.540;2022-07-23T04:29:31;13.52;;;9.73;;
70150;SDS011;57517;43.562;19.540;2022-07-23T04:31:57;10.38;;;8.60;;
70150;SDS011;57517;43.562;19.540;2022-07-23T04:34:23;13.20;;;8.88;;
70150;SDS011;57517;43.562;19.540;2022-07-23T04:36:51;10.77;;;8.20;;
70150;SDS011;57517;43.562;19.540;2022-07-23T04:39:18;13.48;;;9.57;;
70150;SDS011;57517;43.562;19.540;2022-07-23T04:41:44;10.15;;;9.15;;
70150;SDS011;57517;43.562;19.540;2022-07-23T04:44:09;10.60;;;9.50;;
70150;SDS011;57517;43.562;19.540;2022-07-23T04:46:35;10.20;;;9.13;;
70150;SDS011;57517;43.562;19.540;2022-07-23T04:49:01;10.55;;;8.55;;
70150;SDS011;57517;43.562;19.540;2022-07-23T04:51:27;13.15;;;8.77;;
70150;SDS011;57517;43.562;19.540;2022-07-23T04:53:54;11.85;;;8.60;;
70150;SDS011;57517;43.562;19.540;2022-07-23T04:56:20;11.45;;;8.88;;
70150;SDS011;57517;43.562;19.540;2022-07-23T04:58:46;9.70;;;8.77;;
70150;SDS011;57517;43.562;19.540;2022-07-23T05:01:12;10.50;;;8.23;;
70150;SDS011;57517;43.562;19.540;2022-07-23T05:03:38;9.63;;;8.23;;
70150;SDS011;57517;43.562;19.540;2022-07-23T05:06:04;10.75;;;8.85;;
70150;SDS011;57517;43.562;19.540;2022-07-23T05:08:30;11.93;;;8.98;;
70150;SDS011;57517;43.562;19.540;2022-07-23T05:10:55;13.80;;;9.20;;
70150;SDS011;57517;43.562;19.540;2022-07-23T05:13:21;10.85;;;9.07;;
70150;SDS011;57517;43.562;19.540;2022-07-23T05:15:47;11.57;;;9.00;;
70150;SDS011;57517;43.562;19.540;2022-07-23T05:18:13;11.30;;;9.40;;
70150;SDS011;57517;43.562;19.540;2022-07-23T05:20:39;10.27;;;8.88;;
70150;SDS011;57517;43.562;19.540;2022-07-23T05:23:05;9.57;;;8.52;;
70150;SDS011;57517;43.562;19.540;2022-07-23T05:25:31;11.52;;;9.18;;
70150;SDS011;57517;43.562;19.540;2022-07-23T05:27:57;13.60;;;8.93;;
70150;SDS011;57517;43.562;19.540;2022-07-23T05:30:23;12.85;;;9.02;;
70150;SDS011;57517;43.562;19.540;2022-07-23T05:32:49;12.60;;;9.32;;
70150;SDS011;57517;43.562;19.540;2022-07-23T05:35:15;12.60;;;9.07;;
70150;SDS011;57517;43.562;19.540;2022-07-23T05:37:41;9.90;;;8.82;;
70150;SDS011;57517;43.562;19.540;2022-07-23T05:40:07;11.65;;;9.45;;
70150;SDS011;57517;43.562;19.540;2022-07-23T05:42:35;11.90;;;10.00;;
70150;SDS011;57517;43.562;19.540;2022-07-23T05:45:02;10.93;;;9.50;;
70150;SDS011;57517;43.562;19.540;2022-07-23T05:47:28;12.68;;;9.23;;
70150;SDS011;57517;43.562;19.540;2022-07-23T05:50:03;18.38;;;16.60;;
70150;SDS011;57517;43.562;19.540;2022-07-23T05:52:29;18.98;;;17.17;;
70150;SDS011;57517;43.562;19.540;2022-07-23T05:54:55;19.30;;;9.88;;
70150;SDS011;57517;43.562;19.540;2022-07-23T05:57:21;18.85;;;11.50;;
70150;SDS011;57517;43.562;19.540;2022-07-23T05:59:47;24.92;;;15.95;;
70150;SDS011;57517;43.562;19.540;2022-07-23T06:02:12;20.88;;;15.15;;
70150;SDS011;57517;43.562;19.540;2022-07-23T13:39:31;18.55;;;16.58;;
70150;SDS011;57517;43.562;19.540;2022-07-23T13:41:57;17.63;;;15.88;;
70150;SDS011;57517;43.562;19.540;2022-07-23T13:44:22;20.83;;;16.10;;
70150;SDS011;57517;43.562;19.540;2022-07-23T13:46:48;22.33;;;18.65;;
70150;SDS011;57517;43.562;19.540;2022-07-23T13:49:15;46.28;;;26.98;;
70150;SDS011;57517;43.562;19.540;2022-07-23T13:51:40;20.88;;;17.92;;
70150;SDS011;57517;43.562;19.540;2022-07-23T13:54:06;17.42;;;15.73;;
70150;SDS011;57517;43.562;19.540;2022-07-23T13:56:33;17.30;;;15.50;;
70150;SDS011;57517;43.562;19.540;2022-07-23T13:58:59;15.95;;;13.82;;
70150;SDS011;57517;43.562;19.540;2022-07-23T14:01:24;16.15;;;14.60;;
70150;SDS011;57517;43.562;19.540;2022-07-23T14:03:50;16.73;;;14.80;;
70150;SDS011;57517;43.562;19.540;2022-07-23T14:06:16;17.02;;;15.13;;
70150;SDS011;57517;43.562;19.540;2022-07-23T14:08:43;18.17;;;16.27;;
70150;SDS011;57517;43.562;19.540;2022-07-23T14:11:09;20.75;;;18.75;;
70150;SDS011;57517;43.562;19.540;2022-07-23T14:13:35;21.05;;;18.25;;
70150;SDS011;57517;43.562;19.540;2022-07-23T14:16:01;31.00;;;22.40;;
70150;SDS011;57517;43.562;19.540;2022-07-23T14:18:27;21.92;;;16.30;;
70150;SDS011;57517;43.562;19.540;2022-07-23T14:20:53;29.13;;;21.67;;
70150;SDS011;57517;43.562;19.540;2022-07-23T14:23:19;16.80;;;15.20;;
70150;SDS011;57517;43.562;19.540;2022-07-23T14:25:44;17.85;;;14.90;;
70150;SDS011;57517;43.562;19.540;2022-07-23T14:28:10;25.23;;;17.33;;
70150;SDS011;57517;43.562;19.540;2022-07-23T14:30:37;18.65;;;16.85;;
70150;SDS011;57517;43.562;19.540;2022-07-23T14:33:02;23.00;;;18.15;;
70150;SDS011;57517;43.562;19.540;2022-07-23T14:35:28;17.55;;;15.75;;
70150;SDS011;57517;43.562;19.540;2022-07-23T14:37:54;17.60;;;15.10;;
70150;SDS011;57517;43.562;19.540;2022-07-23T14:40:21;24.30;;;17.75;;
70150;SDS011;57517;43.562;19.540;2022-07-23T14:42:47;18.17;;;15.95;;
70150;SDS011;57517;43.562;19.540;2022-07-23T14:45:13;18.55;;;16.60;;
70150;SDS011;57517;43.562;19.540;2022-07-23T14:47:39;23.75;;;16.80;;
70150;SDS011;57517;43.562;19.540;2022-07-23T14:50:05;18.77;;;15.98;;
70150;SDS011;57517;43.562;19.540;2022-07-23T14:52:31;19.98;;;16.73;;
70150;SDS011;57517;43.562;19.540;2022-07-23T14:54:57;19.38;;;17.17;;
70150;SDS011;57517;43.562;19.540;2022-07-23T14:57:22;17.95;;;16.02;;
70150;SDS011;57517;43.562;19.540;2022-07-23T14:59:48;15.30;;;13.93;;
70150;SDS011;57517;43.562;19.540;2022-07-23T15:02:14;17.63;;;15.88;;
70150;SDS011;57517;43.562;19.540;2022-07-23T15:04:40;18.23;;;15.02;;
70150;SDS011;57517;43.562;19.540;2022-07-23T15:07:06;16.83;;;15.10;;
70150;SDS011;57517;43.562;19.540;2022-07-23T15:09:32;17.65;;;16.05;;
70150;SDS011;57517;43.562;19.540;2022-07-23T15:11:58;20.95;;;18.83;;
70150;SDS011;57517;43.562;19.540;2022-07-23T15:14:23;17.73;;;16.10;;
70150;SDS011;57517;43.562;19.540;2022-07-23T15:16:49;17.30;;;15.50;;
70150;SDS011;57517;43.562;19.540;2022-07-23T15:19:15;19.15;;;17.17;;
70150;SDS011;57517;43.562;19.540;2022-07-23T15:21:41;16.45;;;14.77;;
70150;SDS011;57517;43.562;19.540;2022-07-23T15:24:07;17.77;;;15.85;;
70150;SDS011;57517;43.562;19.540;2022-07-23T15:26:33;22.35;;;17.23;;
70150;SDS011;57517;43.562;19.540;2022-07-23T15:28:59;24.25;;;17.67;;
70150;SDS011;57517;43.562;19.540;2022-07-23T15:31:27;27.48;;;17.73;;
70150;SDS011;57517;43.562;19.540;2022-07-23T15:33:53;22.63;;;20.25;;
70150;SDS011;57517;43.562;19.540;2022-07-23T15:36:19;19.35;;;17.35;;
70150;SDS011;57517;43.562;19.540;2022-07-23T15:38:46;27.63;;;19.58;;
70150;SDS011;57517;43.562;19.540;2022-07-23T15:41:12;23.13;;;19.08;;
70150;SDS011;57517;43.562;19.540;2022-07-23T15:43:38;23.20;;;18.95;;
70150;SDS011;57517;43.562;19.540;2022-07-23T15:46:04;20.55;;;18.13;;
70150;SDS011;57517;43.562;19.540;2022-07-23T15:48:31;21.02;;;17.88;;
70150;SDS011;57517;43.562;19.540;2022-07-23T15:50:59;24.88;;;17.80;;
70150;SDS011;57517;43.562;19.540;2022-07-23T15:53:26;20.98;;;17.50;;
70150;SDS011;57517;43.562;19.540;2022-07-23T15:55:52;22.00;;;16.55;;
70150;SDS011;57517;43.562;19.540;2022-07-23T15:58:18;20.67;;;16.23;;
70150;SDS011;57517;43.562;19.540;2022-07-23T16:00:43;20.58;;;16.75;;
70150;SDS011;57517;43.562;19.540;2022-07-23T16:03:09;19.52;;;16.95;;
70150;SDS011;57517;43.562;19.540;2022-07-23T16:05:35;18.55;;;16.92;;
70150;SDS011;57517;43.562;19.540;2022-07-23T16:08:02;21.52;;;18.10;;
70150;SDS011;57517;43.562;19.540;2022-07-23T16:10:29;16.95;;;15.15;;
70150;SDS011;57517;43.562;19.540;2022-07-23T16:12:55;16.10;;;14.13;;
70150;SDS011;57517;43.562;19.540;2022-07-23T16:15:21;17.65;;;14.60;;
70150;SDS011;57517;43.562;19.540;2022-07-23T16:17:47;15.98;;;14.27;;
70150;SDS011;57517;43.562;19.540;2022-07-23T16:20:13;16.15;;;14.55;;
70150;SDS011;57517;43.562;19.540;2022-07-23T16:22:39;16.52;;;14.90;;
70150;SDS011;57517;43.562;19.540;2022-07-23T16:25:05;16.42;;;14.70;;
70150;SDS011;57517;43.562;19.540;2022-07-23T16:27:33;16.83;;;15.02;;
70150;SDS011;57517;43.562;19.540;2022-07-23T16:30:05;16.63;;;13.68;;
70150;SDS011;57517;43.562;19.540;2022-07-23T16:32:33;18.10;;;16.05;;
70150;SDS011;57517;43.562;19.540;2022-07-23T16:34:59;15.95;;;14.38;;
70150;SDS011;57517;43.562;19.540;2022-07-23T16:37:24;16.30;;;14.77;;
70150;SDS011;57517;43.562;19.540;2022-07-23T16:39:50;17.10;;;15.32;;
70150;SDS011;57517;43.562;19.540;2022-07-23T16:42:16;16.05;;;14.55;;
70150;SDS011;57517;43.562;19.540;2022-07-23T16:44:42;16.33;;;14.65;;
70150;SDS011;57517;43.562;19.540;2022-07-23T16:47:08;18.33;;;16.58;;
70150;SDS011;57517;43.562;19.540;2022-07-23T16:49:35;18.08;;;16.48;;
70150;SDS011;57517;43.562;19.540;2022-07-23T16:52:01;19.08;;;17.10;;
70150;SDS011;57517;43.562;19.540;2022-07-23T16:54:29;17.20;;;15.70;;
70150;SDS011;57517;43.562;19.540;2022-07-23T16:56:55;19.65;;;16.40;;
70150;SDS011;57517;43.562;19.540;2022-07-23T16:59:22;16.50;;;15.07;;
70150;SDS011;57517;43.562;19.540;2022-07-23T17:01:47;17.65;;;15.73;;
70150;SDS011;57517;43.562;19.540;2022-07-23T17:04:13;17.60;;;15.98;;
70150;SDS011;57517;43.562;19.540;2022-07-23T17:06:39;18.65;;;16.55;;
70150;SDS011;57517;43.562;19.540;2022-07-23T17:09:05;17.55;;;15.75;;
70150;SDS011;57517;43.562;19.540;2022-07-23T17:11:31;32.30;;;29.15;;
70150;SDS011;57517;43.562;19.540;2022-07-23T17:13:57;19.50;;;17.50;;
70150;SDS011;57517;43.562;19.540;2022-07-23T17:16:23;19.52;;;16.88;;
70150;SDS011;57517;43.562;19.540;2022-07-23T17:18:48;16.27;;;14.60;;
70150;SDS011;57517;43.562;19.540;2022-07-23T17:21:14;17.58;;;15.82;;
70150;SDS011;57517;43.562;19.540;2022-07-23T17:23:40;20.83;;;16.88;;
70150;SDS011;57517;43.562;19.540;2022-07-23T17:26:06;19.50;;;17.70;;
70150;SDS011;57517;43.562;19.540;2022-07-23T17:28:32;19.15;;;17.15;;
70150;SDS011;57517;43.562;19.540;2022-07-23T17:30:57;17.88;;;15.27;;
70150;SDS011;57517;43.562;19.540;2022-07-23T17:33:23;18.13;;;16.33;;
70150;SDS011;57517;43.562;19.540;2022-07-23T17:35:49;16.25;;;14.73;;
70150;SDS011;57517;43.562;19.540;2022-07-23T17:38:19;18.00;;;15.70;;
70150;SDS011;57517;43.562;19.540;2022-07-23T17:40:45;15.98;;;14.32;;
70150;SDS011;57517;43.562;19.540;2022-07-23T17:43:12;16.25;;;14.23;;
70150;SDS011;57517;43.562;19.540;2022-07-23T17:45:38;17.58;;;15.07;;
70150;SDS011;57517;43.562;19.540;2022-07-23T17:48:04;24.83;;;20.67;;
70150;SDS011;57517;43.562;19.540;2022-07-23T17:50:30;22.25;;;19.88;;
70150;SDS011;57517;43.562;19.540;2022-07-23T17:52:56;72.18;;;64.50;;
70150;SDS011;57517;43.562;19.540;2022-07-23T17:55:23;36.15;;;32.55;;
70150;SDS011;57517;43.562;19.540;2022-07-23T17:57:50;33.70;;;30.08;;
70150;SDS011;57517;43.562;19.540;2022-07-23T18:00:21;29.58;;;26.38;;
70150;SDS011;57517;43.562;19.540;2022-07-23T18:02:49;26.35;;;23.25;;
70150;SDS011;57517;43.562;19.540;2022-07-23T18:05:15;35.20;;;29.20;;
70150;SDS011;57517;43.562;19.540;2022-07-23T18:07:41;27.80;;;24.80;;
70150;SDS011;57517;43.562;19.540;2022-07-23T18:10:07;25.20;;;22.58;;
70150;SDS011;57517;43.562;19.540;2022-07-23T18:12:34;21.90;;;19.52;;
70150;SDS011;57517;43.562;19.540;2022-07-23T18:14:59;49.80;;;44.38;;
70150;SDS011;57517;43.562;19.540;2022-07-23T18:17:25;26.33;;;19.65;;
70150;SDS011;57517;43.562;19.540;2022-07-23T18:19:51;23.65;;;18.58;;
70150;SDS011;57517;43.562;19.540;2022-07-23T18:22:17;34.03;;;27.25;;
70150;SDS011;57517;43.562;19.540;2022-07-23T18:24:43;27.42;;;20.05;;
70150;SDS011;57517;43.562;19.540;2022-07-23T18:27:09;23.90;;;20.23;;
70150;SDS011;57517;43.562;19.540;2022-07-23T18:29:34;18.45;;;16.65;;
70150;SDS011;57517;43.562;19.540;2022-07-23T18:32:00;18.45;;;16.55;;
70150;SDS011;57517;43.562;19.540;2022-07-23T18:34:27;21.70;;;17.45;;
70150;SDS011;57517;43.562;19.540;2022-07-23T18:36:54;23.30;;;17.88;;
70150;SDS011;57517;43.562;19.540;2022-07-23T18:39:20;74.45;;;38.75;;
70150;SDS011;57517;43.562;19.540;2022-07-23T18:41:46;302.02;;;133.45;;
70150;SDS011;57517;43.562;19.540;2022-07-23T18:44:11;213.25;;;95.13;;
70150;SDS011;57517;43.562;19.540;2022-07-23T18:46:39;43.88;;;26.67;;
70150;SDS011;57517;43.562;19.540;2022-07-23T18:49:06;49.38;;;27.00;;
70150;SDS011;57517;43.562;19.540;2022-07-23T18:51:32;83.57;;;42.13;;
70150;SDS011;57517;43.562;19.540;2022-07-23T18:53:58;32.80;;;22.42;;
70150;SDS011;57517;43.562;19.540;2022-07-23T18:56:24;31.58;;;21.40;;
70150;SDS011;57517;43.562;19.540;2022-07-23T18:58:50;21.95;;;18.30;;
70150;SDS011;57517;43.562;19.540;2022-07-23T19:01:16;18.60;;;16.17;;
70150;SDS011;57517;43.562;19.540;2022-07-23T19:03:41;26.15;;;18.75;;
70150;SDS011;57517;43.562;19.540;2022-07-23T19:06:07;25.02;;;18.63;;
70150;SDS011;57517;43.562;19.540;2022-07-23T19:08:33;37.78;;;25.42;;
70150;SDS011;57517;43.562;19.540;2022-07-23T19:10:59;28.80;;;22.15;;
70150;SDS011;57517;43.562;19.540;2022-07-23T19:13:25;29.88;;;21.98;;
70150;SDS011;57517;43.562;19.540;2022-07-23T19:15:51;51.63;;;36.17;;
70150;SDS011;57517;43.562;19.540;2022-07-23T19:18:17;36.55;;;27.85;;
70150;SDS011;57517;43.562;19.540;2022-07-23T19:20:44;25.30;;;22.67;;
70150;SDS011;57517;43.562;19.540;2022-07-23T19:23:10;21.88;;;19.58;;
70150;SDS011;57517;43.562;19.540;2022-07-23T19:25:35;29.58;;;22.58;;
70150;SDS011;57517;43.562;19.540;2022-07-23T19:28:01;25.42;;;22.33;;
70150;SDS011;57517;43.562;19.540;2022-07-23T19:30:28;23.58;;;21.05;;
70150;SDS011;57517;43.562;19.540;2022-07-23T19:32:54;22.17;;;19.90;;
70150;SDS011;57517;43.562;19.540;2022-07-23T19:35:19;21.77;;;18.90;;
70150;SDS011;57517;43.562;19.540;2022-07-23T19:37:45;22.80;;;17.35;;
70150;SDS011;57517;43.562;19.540;2022-07-23T19:40:11;19.00;;;17.23;;
70150;SDS011;57517;43.562;19.540;2022-07-23T19:42:37;18.58;;;15.38;;
70150;SDS011;57517;43.562;19.540;2022-07-23T19:45:05;20.95;;;17.73;;
70150;SDS011;57517;43.562;19.540;2022-07-23T19:47:31;22.75;;;17.15;;
70150;SDS011;57517;43.562;19.540;2022-07-23T19:49:57;21.50;;;17.30;;
70150;SDS011;57517;43.562;19.540;2022-07-23T19:52:24;20.00;;;17.88;;
70150;SDS011;57517;43.562;19.540;2022-07-23T19:54:50;20.00;;;17.92;;
70150;SDS011;57517;43.562;19.540;2022-07-23T19:57:15;20.45;;;18.27;;
70150;SDS011;57517;43.562;19.540;2022-07-23T19:59:41;20.52;;;17.23;;
70150;SDS011;57517;43.562;19.540;2022-07-23T20:02:07;21.83;;;19.73;;
70150;SDS011;57517;43.562;19.540;2022-07-23T20:04:33;20.88;;;18.52;;
70150;SDS011;57517;43.562;19.540;2022-07-23T20:06:59;23.08;;;18.20;;
70150;SDS011;57517;43.562;19.540;2022-07-23T20:09:25;26.02;;;19.10;;
70150;SDS011;57517;43.562;19.540;2022-07-23T20:11:51;24.75;;;18.52;;
70150;SDS011;57517;43.562;19.540;2022-07-23T20:14:17;20.55;;;18.08;;
70150;SDS011;57517;43.562;19.540;2022-07-23T20:16:42;22.90;;;18.70;;
70150;SDS011;57517;43.562;19.540;2022-07-23T20:19:08;23.48;;;19.00;;
70150;SDS011;57517;43.562;19.540;2022-07-23T20:21:36;24.42;;;20.30;;
70150;SDS011;57517;43.562;19.540;2022-07-23T20:24:09;21.27;;;17.40;;
70150;SDS011;57517;43.562;19.540;2022-07-23T20:26:37;22.58;;;18.70;;
70150;SDS011;57517;43.562;19.540;2022-07-23T20:29:03;19.48;;;17.48;;
70150;SDS011;57517;43.562;19.540;2022-07-23T20:31:29;18.63;;;16.65;;
70150;SDS011;57517;43.562;19.540;2022-07-23T20:33:55;20.40;;;18.33;;
70150;SDS011;57517;43.562;19.540;2022-07-23T20:36:21;19.67;;;17.23;;
70150;SDS011;57517;43.562;19.540;2022-07-23T20:38:46;21.83;;;17.55;;
70150;SDS011;57517;43.562;19.540;2022-07-23T20:41:12;20.23;;;18.15;;
70150;SDS011;57517;43.562;19.540;2022-07-23T20:43:38;20.92;;;18.67;;
70150;SDS011;57517;43.562;19.540;2022-07-23T20:46:05;20.83;;;17.40;;
70150;SDS011;57517;43.562;19.540;2022-07-23T20:48:30;19.17;;;16.80;;
70150;SDS011;57517;43.562;19.540;2022-07-23T20:50:56;21.48;;;18.95;;
70150;SDS011;57517;43.562;19.540;2022-07-23T20:53:22;19.63;;;17.58;;
70150;SDS011;57517;43.562;19.540;2022-07-23T20:55:48;21.27;;;18.98;;
70150;SDS011;57517;43.562;19.540;2022-07-23T20:58:14;21.60;;;18.15;;
70150;SDS011;57517;43.562;19.540;2022-07-23T21:00:39;24.95;;;21.15;;
70150;SDS011;57517;43.562;19.540;2022-07-23T21:03:05;19.95;;;17.73;;
70150;SDS011;57517;43.562;19.540;2022-07-23T21:05:31;19.70;;;16.77;;
70150;SDS011;57517;43.562;19.540;2022-07-23T21:07:57;19.15;;;17.13;;
70150;SDS011;57517;43.562;19.540;2022-07-23T21:10:23;25.63;;;22.42;;
70150;SDS011;57517;43.562;19.540;2022-07-23T21:12:49;23.33;;;19.73;;
70150;SDS011;57517;43.562;19.540;2022-07-23T21:15:15;21.60;;;19.40;;
70150;SDS011;57517;43.562;19.540;2022-07-23T21:17:40;25.65;;;23.02;;
70150;SDS011;57517;43.562;19.540;2022-07-23T21:20:06;20.88;;;17.50;;
70150;SDS011;57517;43.562;19.540;2022-07-23T21:22:32;21.90;;;18.77;;
70150;SDS011;57517;43.562;19.540;2022-07-23T21:24:58;18.65;;;16.67;;
70150;SDS011;57517;43.562;19.540;2022-07-23T21:27:24;20.92;;;16.85;;
70150;SDS011;57517;43.562;19.540;2022-07-23T21:29:50;22.15;;;20.00;;
70150;SDS011;57517;43.562;19.540;2022-07-23T21:32:16;20.95;;;18.77;;
70150;SDS011;57517;43.562;19.540;2022-07-23T21:34:41;20.17;;;18.02;;
70150;SDS011;57517;43.562;19.540;2022-07-23T21:37:07;19.15;;;17.23;;
70150;SDS011;57517;43.562;19.540;2022-07-23T21:39:33;18.83;;;16.90;;
70150;SDS011;57517;43.562;19.540;2022-07-23T21:41:59;19.38;;;17.38;;
70150;SDS011;57517;43.562;19.540;2022-07-23T21:44:25;19.10;;;17.20;;